Time;durP1;ratioP1;P1;durP2;ratioP2;P2;SDS_P1;SDS_P2;PMS_P1;PMS_P2;Temp;Humidity;BMP_temperature;BMP_pressure;BME280_temperature;BME280_humidity;BME280_pressure;Samples;Min_cycle;Max_cycle;Signal;HPM_P1;HPM_P2
2022/08/10 00:01:16;;;;;;;7.05;3.10;;;15.00;99.90;;;;;;5099106;28;19920;-66
2022/08/10 00:03:42;;;;;;;;;;;15.10;99.90;;;;;;5103598;28;20031;-66
2022/08/10 00:06:07;;;;;;;3.90;2.63;;;15.10;99.90;;;;;;5102160;28;20007;-65
2022/08/10 00:08:33;;;;;;;;;;;15.10;99.90;;;;;;5102967;28;20096;-65
2022/08/10 00:10:58;;;;;;;5.25;3.22;;;15.00;99.90;;;;;;5102290;28;19916;-66
2022/08/10 00:13:25;;;;;;;;;;;15.00;99.90;;;;;;5102788;28;20050;-65
2022/08/10 00:15:51;;;;;;;5.03;3.53;;;15.00;99.90;;;;;;5102550;28;20298;-66
2022/08/10 00:18:18;;;;;;;6.03;3.33;;;15.00;99.90;;;;;;5087799;28;20036;-65
2022/08/10 00:20:44;;;;;;;7.90;3.08;;;14.90;99.90;;;;;;5085831;28;20558;-66
2022/08/10 00:23:09;;;;;;;;;;;15.00;99.90;;;;;;5089643;28;20044;-65
2022/08/10 00:25:35;;;;;;;3.67;2.95;;;15.00;99.90;;;;;;5088665;28;20743;-66
2022/08/10 00:28:00;;;;;;;;;;;14.90;99.90;;;;;;5089371;28;20567;-66
2022/08/10 00:30:26;;;;;;;6.40;2.70;;;14.90;99.90;;;;;;5088581;28;19920;-66
2022/08/10 00:32:51;;;;;;;;;;;14.80;99.90;;;;;;5088619;28;20032;-66
2022/08/10 00:35:17;;;;;;;3.25;2.50;;;14.70;99.90;;;;;;5088597;28;19950;-65
2022/08/10 00:37:42;;;;;;;;;;;14.80;99.90;;;;;;5088292;28;20385;-66
2022/08/10 00:40:09;;;;;;;10.98;2.47;;;14.80;99.90;;;;;;5089424;28;19928;-66
2022/08/10 00:42:34;;;;;;;3.25;2.50;;;14.80;99.90;;;;;;5088721;28;20598;-65
2022/08/10 00:45:00;;;;;;;;;;;14.80;99.90;;;;;;5089972;28;20037;-65
2022/08/10 00:47:25;;;;;;;5.85;2.95;;;14.70;99.90;;;;;;5081326;28;19923;-66
2022/08/10 00:49:51;;;;;;;;;;;14.70;99.90;;;;;;5083125;28;20040;-66
2022/08/10 00:52:19;;;;;;;2.42;2.13;;;14.70;99.90;;;;;;5088137;28;19916;-66
2022/08/10 00:54:46;;;;;;;4.50;2.95;;;14.60;99.90;;;;;;5088298;28;20062;-66
2022/08/10 00:57:13;;;;;;;4.35;2.97;;;14.60;99.90;;;;;;5087950;28;20760;-65
2022/08/10 00:59:39;;;;;;;7.72;2.70;;;14.60;99.90;;;;;;5088026;28;20111;-65
2022/08/10 01:02:05;;;;;;;;;;;14.60;99.90;;;;;;5088319;28;20158;-66
2022/08/10 01:04:30;;;;;;;2.80;2.28;;;14.50;99.90;;;;;;5088474;28;19965;-66
2022/08/10 01:07:15;;;;;;;;;;;14.50;99.90;;;;;;5087560;28;20055;-66
2022/08/10 01:10:00;;;;;;;4.55;2.92;;;14.50;99.90;;;;;;5088720;28;19919;-65
2022/08/10 01:12:37;;;;;;;3.42;2.40;;;14.50;99.90;;;;;;5087747;28;20051;-65
2022/08/10 01:15:09;;;;;;;3.78;2.92;;;14.50;99.90;;;;;;5087943;28;20044;-65
2022/08/10 01:18:01;;;;;;;4.68;3.53;;;14.50;99.90;;;;;;5087748;28;20036;-65
2022/08/10 01:21:14;;;;;;;3.42;2.55;;;14.50;99.90;;;;;;5082254;28;20052;-65
2022/08/10 01:24:13;;;;;;;4.43;2.58;;;14.50;99.90;;;;;;5075895;28;20048;-66
2022/08/10 01:26:47;;;;;;;3.63;2.50;;;14.50;99.90;;;;;;5087428;28;20043;-65
2022/08/10 01:29:38;;;;;;;6.07;3.13;;;14.60;99.90;;;;;;5086401;28;20024;-65
2022/08/10 01:32:05;;;;;;;6.10;2.88;;;14.50;99.90;;;;;;5087177;28;20526;-65
2022/08/10 01:34:42;;;;;;;4.43;3.08;;;14.50;99.90;;;;;;5087829;28;20040;-64
2022/08/10 01:37:12;;;;;;;6.57;2.50;;;14.50;99.90;;;;;;5087385;28;20123;-65
2022/08/10 01:39:47;;;;;;;3.63;2.35;;;14.50;99.90;;;;;;5087385;28;20127;-65
2022/08/10 01:42:17;;;;;;;7.55;2.30;;;14.40;99.90;;;;;;5087659;28;20052;-66
2022/08/10 01:44:48;;;;;;;4.95;3.00;;;14.40;99.90;;;;;;5087333;28;20451;-65
2022/08/10 01:50:06;;;;;;;4.40;2.55;;;14.30;99.90;;;;;;5082469;28;20136;-65
2022/08/10 01:52:35;;;;;;;9.15;3.17;;;14.20;99.90;;;;;;5087115;28;20044;-65
2022/08/10 01:55:01;;;;;;;4.10;2.92;;;14.20;99.90;;;;;;5087444;28;20039;-66
2022/08/10 01:57:29;;;;;;;;;;;14.30;99.90;;;;;;5086801;28;20039;-66
2022/08/10 01:59:57;;;;;;;5.30;2.38;;;14.20;99.90;;;;;;5087311;28;19931;-65
2022/08/10 02:02:25;;;;;;;6.82;2.58;;;14.20;99.90;;;;;;5086701;28;20086;-65
2022/08/10 02:04:53;;;;;;;4.60;2.75;;;14.20;99.90;;;;;;5086844;28;20409;-65
2022/08/10 02:07:22;;;;;;;5.20;2.90;;;14.10;99.90;;;;;;5086897;28;20051;-66
2022/08/10 02:09:51;;;;;;;6.00;2.80;;;14.10;99.90;;;;;;5086329;28;20040;-66
2022/08/10 02:12:21;;;;;;;4.32;2.67;;;14.10;99.90;;;;;;5086290;28;20036;-65
2022/08/10 02:14:52;;;;;;;5.50;2.72;;;14.10;99.90;;;;;;5086786;28;20541;-65
2022/08/10 02:17:21;;;;;;;3.97;2.83;;;14.10;99.90;;;;;;5086302;28;20051;-65
2022/08/10 02:19:50;;;;;;;3.78;2.83;;;14.00;99.90;;;;;;5079285;28;20598;-66
2022/08/10 02:22:17;;;;;;;4.25;2.83;;;14.00;99.90;;;;;;5073109;28;20425;-65
2022/08/10 02:24:44;;;;;;;6.15;2.58;;;14.00;99.90;;;;;;5071001;28;20361;-66
2022/08/10 02:27:11;;;;;;;3.35;2.45;;;14.00;99.90;;;;;;5086166;28;20040;-65
2022/08/10 02:29:39;;;;;;;5.85;2.80;;;14.00;99.90;;;;;;5086214;28;20038;-65
2022/08/10 02:32:07;;;;;;;4.90;2.58;;;14.00;99.90;;;;;;5086414;28;20043;-65
2022/08/10 02:34:37;;;;;;;3.95;2.47;;;13.90;99.90;;;;;;5068627;28;20032;-66
2022/08/10 02:37:04;;;;;;;3.42;2.55;;;13.80;99.90;;;;;;5085970;28;20170;-65
2022/08/10 02:39:31;;;;;;;4.85;2.70;;;13.90;99.90;;;;;;5086470;28;20348;-65
2022/08/10 02:42:12;;;;;;;5.32;2.85;;;13.90;99.90;;;;;;5076754;28;20517;-66
2022/08/10 02:44:44;;;;;;;5.10;2.90;;;13.80;99.90;;;;;;5085913;28;20108;-66
2022/08/10 02:47:35;;;;;;;10.35;3.17;;;13.80;99.90;;;;;;5085591;28;20087;-66
2022/08/10 02:50:13;;;;;;;4.25;2.58;;;13.80;99.90;;;;;;5078220;28;20043;-66
2022/08/10 02:52:46;;;;;;;6.30;2.90;;;13.80;99.90;;;;;;5086201;28;20039;-65
2022/08/10 02:55:26;;;;;;;5.18;2.38;;;13.80;99.90;;;;;;5085943;28;20039;-66
2022/08/10 02:57:56;;;;;;;7.57;3.35;;;13.80;99.90;;;;;;5085655;28;20123;-65
2022/08/10 03:00:23;;;;;;;6.53;2.97;;;13.80;99.90;;;;;;5086068;28;20393;-65
2022/08/10 03:02:50;;;;;;;3.47;2.45;;;13.70;99.90;;;;;;5084941;28;20040;-65
2022/08/10 03:05:18;;;;;;;6.68;2.78;;;13.70;99.90;;;;;;5084888;28;20067;-65
2022/08/10 03:07:59;;;;;;;3.55;2.13;;;13.70;99.90;;;;;;5083662;28;20036;-64
2022/08/10 03:10:29;;;;;;;4.38;2.58;;;13.70;99.90;;;;;;5086501;28;20402;-65
2022/08/10 03:12:58;;;;;;;8.20;3.10;;;13.60;99.90;;;;;;5086104;28;20063;-65
2022/08/10 03:15:27;;;;;;;6.45;3.35;;;13.60;99.90;;;;;;5085952;28;20504;-66
2022/08/10 03:17:53;;;;;;;3.50;2.42;;;13.60;99.90;;;;;;5085347;28;20032;-65
2022/08/10 03:20:22;;;;;;;5.72;3.20;;;13.60;99.90;;;;;;5079992;28;20032;-65
2022/08/10 03:22:52;;;;;;;2.83;2.47;;;13.60;99.90;;;;;;5069372;28;20036;-65
2022/08/10 03:25:21;;;;;;;7.45;3.20;;;13.60;99.90;;;;;;5068334;28;20045;-66
2022/08/10 03:27:48;;;;;;;5.13;2.85;;;13.60;99.90;;;;;;5085138;28;20040;-66
2022/08/10 03:30:15;;;;;;;5.15;2.80;;;13.60;99.90;;;;;;5085728;28;20078;-65
2022/08/10 03:32:43;;;;;;;6.45;3.42;;;13.60;99.90;;;;;;5083183;28;20199;-66
2022/08/10 03:35:10;;;;;;;7.57;2.85;;;13.60;99.90;;;;;;5085528;28;20043;-65
2022/08/10 03:37:36;;;;;;;6.00;2.65;;;13.60;99.90;;;;;;5085263;28;20051;-66
2022/08/10 03:40:03;;;;;;;;;;;13.60;99.90;;;;;;5076753;28;20036;-65
2022/08/10 03:42:31;;;;;;;8.18;2.92;;;13.50;99.90;;;;;;5080928;28;19926;-65
2022/08/10 03:44:57;;;;;;;3.90;2.50;;;13.50;99.90;;;;;;5084258;28;20103;-65
2022/08/10 03:47:25;;;;;;;6.70;3.05;;;13.50;99.90;;;;;;5086022;28;20063;-65
2022/08/10 03:49:53;;;;;;;5.35;3.20;;;13.50;99.90;;;;;;5077929;28;20131;-65
2022/08/10 03:52:19;;;;;;;5.82;3.10;;;13.50;99.90;;;;;;5084794;28;20127;-65
2022/08/10 03:54:45;;;;;;;;;;;13.50;99.90;;;;;;5090333;28;20131;-64
2022/08/10 03:57:11;;;;;;;6.20;3.08;;;13.50;99.90;;;;;;5088627;28;19920;-66
2022/08/10 03:59:37;;;;;;;;;;;13.40;99.90;;;;;;5089945;28;20820;-65
2022/08/10 04:02:07;;;;;;;5.28;3.08;;;13.50;99.90;;;;;;5088543;28;20284;-65
2022/08/10 04:04:33;;;;;;;10.45;3.47;;;13.40;99.90;;;;;;5088957;28;20054;-65
2022/08/10 04:06:58;;;;;;;;;;;13.40;99.90;;;;;;5089069;28;20044;-65
2022/08/10 04:09:29;;;;;;;5.25;2.95;;;13.40;99.90;;;;;;5089367;28;20373;-66
2022/08/10 04:11:55;;;;;;;8.68;3.00;;;13.40;99.90;;;;;;5088887;28;20436;-65
2022/08/10 04:14:20;;;;;;;;;;;13.40;99.90;;;;;;5089541;28;20496;-65
2022/08/10 04:16:46;;;;;;;5.78;2.83;;;13.40;99.90;;;;;;5087951;28;19920;-65
2022/08/10 04:19:13;;;;;;;;;;;13.40;99.90;;;;;;5082557;28;20180;-65
2022/08/10 04:21:45;;;;;;;11.88;3.45;;;13.40;99.90;;;;;;5088565;28;20006;-64
2022/08/10 04:24:17;;;;;;;6.90;3.63;;;13.40;99.90;;;;;;5088808;28;20044;-65
2022/08/10 04:26:43;;;;;;;7.30;3.42;;;13.40;99.90;;;;;;5087811;28;20177;-65
2022/08/10 04:29:09;;;;;;;;;;;13.40;99.90;;;;;;5089247;28;20044;-65
2022/08/10 04:31:36;;;;;;;5.30;3.20;;;13.40;99.90;;;;;;5087935;28;19916;-66
2022/08/10 04:34:03;;;;;;;5.03;3.03;;;13.60;99.90;;;;;;5088120;28;20047;-66
2022/08/10 04:36:29;;;;;;;7.40;3.00;;;14.00;99.90;;;;;;5083320;28;20059;-66
2022/08/10 04:38:55;;;;;;;7.05;3.10;;;14.00;99.90;;;;;;5081694;28;20048;-65
2022/08/10 04:41:21;;;;;;;;;;;14.00;99.90;;;;;;5085195;28;20420;-65
2022/08/10 04:43:47;;;;;;;10.82;3.17;;;14.00;99.90;;;;;;5088685;28;20076;-65
2022/08/10 04:46:13;;;;;;;;;;;14.00;99.90;;;;;;5088539;28;20607;-65
2022/08/10 04:48:38;;;;;;;4.78;3.20;;;14.10;99.90;;;;;;5081400;28;19922;-65
2022/08/10 04:51:04;;;;;;;;;;;14.20;99.90;;;;;;5082235;28;20056;-64
2022/08/10 04:53:29;;;;;;;4.35;2.47;;;14.20;99.90;;;;;;5078623;28;20021;-64
2022/08/10 04:55:55;;;;;;;;;;;14.30;99.90;;;;;;5076291;28;20050;-65
2022/08/10 04:58:20;;;;;;;8.48;3.35;;;14.40;99.90;;;;;;5077260;28;19928;-64
2022/08/10 05:00:46;;;;;;;;;;;14.40;99.90;;;;;;5079779;28;20044;-65
2022/08/10 05:03:11;;;;;;;11.48;3.08;;;14.60;99.90;;;;;;5076916;28;19927;-65
2022/08/10 05:05:37;;;;;;;;;;;15.00;99.90;;;;;;5083633;28;20044;-65
2022/08/10 05:08:03;;;;;;;6.05;3.25;;;15.00;99.90;;;;;;5084886;28;19939;-64
2022/08/10 05:10:28;;;;;;;;;;;15.10;99.90;;;;;;5087151;28;20549;-69
2022/08/10 05:12:54;;;;;;;9.93;3.03;;;15.00;99.90;;;;;;5087460;28;19916;-66
2022/08/10 05:15:22;;;;;;;5.22;2.65;;;15.00;99.90;;;;;;5087164;28;20036;-65
2022/08/10 05:17:48;;;;;;;11.10;3.58;;;14.90;99.90;;;;;;5087406;28;20052;-65
2022/08/10 05:20:13;;;;;;;;;;;15.00;99.90;;;;;;5080662;28;20180;-63
2022/08/10 05:22:43;;;;;;;4.85;3.55;;;14.90;99.90;;;;;;5088107;28;19916;-64
2022/08/10 05:25:11;;;;;;;7.72;3.58;;;15.00;99.90;;;;;;5087024;28;20036;-64
2022/08/10 05:27:38;;;;;;;5.75;2.92;;;15.10;99.90;;;;;;5086750;28;20040;-64
2022/08/10 05:30:06;;;;;;;5.38;3.40;;;15.10;99.90;;;;;;5076801;28;20039;-63
2022/08/10 05:32:33;;;;;;;17.80;3.63;;;15.50;99.90;;;;;;5077344;28;20059;-64
2022/08/10 05:34:58;;;;;;;13.50;3.50;;;15.60;99.90;;;;;;5087117;28;20556;-64
2022/08/10 05:37:24;;;;;;;;;;;15.70;99.90;;;;;;5080567;28;20067;-63
2022/08/10 05:39:50;;;;;;;5.45;3.05;;;15.80;99.90;;;;;;5084970;28;19920;-65
2022/08/10 05:42:16;;;;;;;4.25;2.53;;;15.90;99.90;;;;;;5081233;28;20070;-65
2022/08/10 05:44:43;;;;;;;;;;;15.90;99.90;;;;;;5086953;28;20040;-64
2022/08/10 05:47:08;;;;;;;5.57;2.78;;;15.90;99.90;;;;;;5086915;28;19956;-65
2022/08/10 05:49:34;;;;;;;;;;;16.00;99.90;;;;;;5080184;28;20040;-66
2022/08/10 05:51:59;;;;;;;4.95;3.10;;;16.10;99.90;;;;;;5086950;28;19966;-66
2022/08/10 05:54:25;;;;;;;;;;;16.10;99.90;;;;;;5086892;28;20120;-66
2022/08/10 05:56:51;;;;;;;8.90;3.20;;;16.20;99.90;;;;;;5086264;28;19919;-65
2022/08/10 05:59:17;;;;;;;;;;;16.30;99.90;;;;;;5086266;28;20105;-64
2022/08/10 06:01:45;;;;;;;7.65;2.90;;;16.30;99.90;;;;;;5086047;28;20420;-62
2022/08/10 06:04:18;;;;;;;7.35;2.88;;;16.40;99.90;;;;;;5085865;28;20524;-64
2022/08/10 06:06:46;;;;;;;8.77;3.40;;;16.50;99.90;;;;;;5086469;28;20040;-64
2022/08/10 06:09:15;;;;;;;4.95;3.35;;;16.50;99.90;;;;;;5086428;28;20048;-62
2022/08/10 06:11:44;;;;;;;7.78;3.28;;;16.50;99.90;;;;;;5086695;28;20039;-56
2022/08/10 06:16:59;;;;;;;5.65;3.33;;;16.70;99.90;;;;;;5074642;28;20151;-61
2022/08/10 06:19:26;;;;;;;8.40;3.45;;;16.80;99.90;;;;;;5079071;28;20056;-59
2022/08/10 06:21:54;;;;;;;10.75;3.33;;;17.00;99.90;;;;;;5076752;28;20032;-62
2022/08/10 06:24:22;;;;;;;7.38;2.80;;;17.30;99.90;;;;;;5083248;28;20131;-64
2022/08/10 06:26:48;;;;;;;7.28;3.70;;;17.60;99.90;;;;;;5084075;28;20075;-63
2022/08/10 06:29:14;;;;;;;;;;;17.90;99.90;;;;;;5086043;28;20459;-64
2022/08/10 06:31:46;;;;;;;3.53;2.55;;;18.20;99.90;;;;;;5086006;28;19923;-62
2022/08/10 06:34:14;;;;;;;6.05;3.15;;;18.40;99.90;;;;;;5084641;28;20047;-62
2022/08/10 06:36:42;;;;;;;4.85;2.80;;;18.40;99.90;;;;;;5086573;28;20048;-62
2022/08/10 06:39:08;;;;;;;7.72;2.63;;;18.80;99.50;;;;;;5086255;28;20111;-61
2022/08/10 06:41:40;;;;;;;6.22;2.63;;;19.30;98.60;;;;;;5085029;28;20113;-62
2022/08/10 06:44:10;;;;;;;6.25;2.78;;;19.40;98.20;;;;;;5086833;28;20040;-62
2022/08/10 06:46:43;;;;;;;4.35;3.08;;;19.50;97.70;;;;;;5066087;28;20044;-62
2022/08/10 06:49:10;;;;;;;7.45;2.50;;;19.80;97.40;;;;;;5077548;28;20036;-63
2022/08/10 06:51:38;;;;;;;3.72;2.25;;;20.90;96.70;;;;;;5086075;28;20048;-63
2022/08/10 06:54:07;;;;;;;6.22;3.00;;;21.70;95.10;;;;;;5085778;28;20040;-62
2022/08/10 06:56:40;;;;;;;4.63;2.30;;;21.70;94.50;;;;;;5085751;28;20040;-62
2022/08/10 06:59:15;;;;;;;6.53;2.42;;;21.40;94.70;;;;;;5086167;28;20036;-62
2022/08/10 07:01:46;;;;;;;2.67;1.90;;;21.10;95.10;;;;;;5065865;28;20106;-63
2022/08/10 07:04:24;;;;;;;7.50;2.30;;;20.80;94.10;;;;;;5070337;28;20044;-64
2022/08/10 07:06:50;;;;;;;3.38;2.05;;;20.80;94.80;;;;;;5085591;28;20059;-65
2022/08/10 07:09:18;;;;;;;6.95;1.90;;;20.80;92.30;;;;;;5086648;28;20127;-65
2022/08/10 07:11:45;;;;;;;4.70;2.00;;;20.90;91.90;;;;;;5085865;28;20097;-64
2022/08/10 07:14:12;;;;;;;3.25;1.83;;;21.20;91.80;;;;;;5086229;28;20044;-64
2022/08/10 07:16:41;;;;;;;4.10;2.30;;;21.40;91.30;;;;;;5085467;28;20079;-65
2022/08/10 07:19:08;;;;;;;3.42;1.88;;;21.40;91.10;;;;;;5078297;28;20109;-64
2022/08/10 07:21:36;;;;;;;5.20;1.98;;;21.30;90.00;;;;;;5079060;28;20125;-65
2022/08/10 07:24:03;;;;;;;3.17;2.25;;;21.10;91.80;;;;;;5074170;28;20036;-64
2022/08/10 07:26:29;;;;;;;3.92;2.03;;;21.00;91.10;;;;;;5085976;28;20048;-65
2022/08/10 07:28:56;;;;;;;2.75;1.92;;;21.00;90.00;;;;;;5089116;28;20055;-65
2022/08/10 07:31:23;;;;;;;2.30;2.00;;;20.80;90.60;;;;;;5087768;28;20435;-65
2022/08/10 07:33:53;;;;;;;4.78;1.65;;;20.70;90.70;;;;;;5083576;28;20463;-64
2022/08/10 07:36:22;;;;;;;4.25;2.25;;;20.60;90.60;;;;;;5086616;28;20036;-62
2022/08/10 07:38:50;;;;;;;4.80;2.20;;;20.50;90.10;;;;;;5086553;28;20512;-64
2022/08/10 07:41:18;;;;;;;3.47;2.20;;;20.50;91.50;;;;;;5078673;28;20407;-65
2022/08/10 07:43:46;;;;;;;4.05;2.25;;;20.60;91.80;;;;;;5083086;28;20047;-65
2022/08/10 07:46:14;;;;;;;6.05;2.08;;;20.80;89.50;;;;;;5089418;28;20102;-65
2022/08/10 07:48:46;;;;;;;4.35;1.73;;;20.90;90.70;;;;;;5087238;28;20055;-64
2022/08/10 07:51:12;;;;;;;10.13;2.38;;;20.90;90.10;;;;;;5084197;28;20040;-64
2022/08/10 07:53:49;;;;;;;5.25;2.13;;;20.80;89.90;;;;;;5086176;28;20044;-65
2022/08/10 07:56:17;;;;;;;4.30;2.45;;;20.70;90.40;;;;;;5078915;28;20075;-64
2022/08/10 07:58:52;;;;;;;5.45;2.40;;;20.70;91.40;;;;;;5086343;28;20044;-64
2022/08/10 08:01:21;;;;;;;3.63;1.90;;;20.80;91.60;;;;;;5088020;28;20047;-64
2022/08/10 08:03:48;;;;;;;8.02;2.30;;;21.00;90.50;;;;;;5089060;28;20126;-65
2022/08/10 08:06:15;;;;;;;6.75;2.50;;;21.30;92.30;;;;;;5087819;28;20048;-65
2022/08/10 08:08:42;;;;;;;4.35;2.70;;;21.70;86.70;;;;;;5089251;28;20251;-64
2022/08/10 08:11:09;;;;;;;2.70;2.15;;;22.70;89.40;;;;;;5089432;28;20531;-63
2022/08/10 08:13:37;;;;;;;2.53;2.20;;;24.00;82.80;;;;;;5088736;28;20445;-62
2022/08/10 08:16:05;;;;;;;3.45;2.15;;;24.60;81.30;;;;;;5086801;28;20424;-64
2022/08/10 08:18:34;;;;;;;3.85;2.22;;;25.80;76.90;;;;;;5082377;28;20113;-64
2022/08/10 08:21:01;;;;;;;6.90;3.05;;;26.80;73.60;;;;;;5085457;28;20044;-64
2022/08/10 08:23:27;;;;;;;4.30;2.40;;;27.90;73.20;;;;;;5087720;28;20048;-64
2022/08/10 08:25:55;;;;;;;6.78;2.05;;;28.90;69.00;;;;;;5087618;28;20089;-65
2022/08/10 08:28:21;;;;;;;5.97;1.85;;;29.20;65.80;;;;;;5088575;28;20104;-65
2022/08/10 08:30:48;;;;;;;3.75;2.05;;;29.20;62.30;;;;;;5087895;28;20028;-64
2022/08/10 08:33:16;;;;;;;4.28;2.30;;;28.30;63.30;;;;;;5080611;28;20352;-63
2022/08/10 08:35:44;;;;;;;7.18;1.88;;;28.00;66.10;;;;;;5085055;28;20044;-64
2022/08/10 08:38:11;;;;;;;7.03;2.05;;;28.10;66.30;;;;;;5082343;28;20057;-64
2022/08/10 08:40:39;;;;;;;5.72;2.35;;;27.30;64.70;;;;;;5087728;28;20036;-64
2022/08/10 08:43:41;;;;;;;9.25;2.42;;;27.50;66.10;;;;;;5067816;28;20067;-64
2022/08/10 08:46:34;;;;;;;5.20;2.38;;;28.30;64.30;;;;;;5083637;28;20044;-63
2022/08/10 08:49:37;;;;;;;5.68;2.35;;;27.70;61.70;;;;;;5080499;28;20040;-63
2022/08/10 08:52:09;;;;;;;14.57;2.60;;;26.50;67.10;;;;;;5083468;28;20032;-64
2022/08/10 08:54:45;;;;;;;6.20;2.50;;;25.50;67.10;;;;;;5080375;28;20488;-63
2022/08/10 08:57:37;;;;;;;2.78;2.08;;;25.00;68.40;;;;;;5078807;28;20089;-63
2022/08/10 09:00:38;;;;;;;4.53;2.70;;;24.60;71.50;;;;;;5070636;28;20048;-63
2022/08/10 09:03:28;;;;;;;4.32;2.42;;;24.40;70.30;;;;;;5075617;28;20041;-64
2022/08/10 09:06:20;;;;;;;7.95;2.63;;;24.40;72.40;;;;;;5069553;28;20049;-64
2022/08/10 09:09:06;;;;;;;5.03;2.58;;;24.30;72.60;;;;;;5086554;28;20044;-64
2022/08/10 09:12:02;;;;;;;4.82;2.63;;;24.30;72.70;;;;;;5086855;28;20097;-63
2022/08/10 09:14:47;;;;;;;3.15;2.45;;;24.10;69.00;;;;;;5088620;28;20036;-63
2022/08/10 09:17:37;;;;;;;22.05;2.97;;;24.10;74.40;;;;;;5087090;28;20151;-63
2022/08/10 09:20:21;;;;;;;6.40;2.90;;;24.00;72.10;;;;;;5079660;28;20032;-63
2022/08/10 09:22:54;;;;;;;3.63;2.35;;;23.90;72.00;;;;;;5087730;28;20044;-63
2022/08/10 09:25:23;;;;;;;6.35;2.55;;;23.90;74.00;;;;;;5086656;28;20040;-64
2022/08/10 09:27:54;;;;;;;5.13;2.50;;;24.20;74.30;;;;;;5087481;28;20108;-63
2022/08/10 09:30:38;;;;;;;6.20;2.65;;;24.20;72.70;;;;;;5083074;28;20036;-62
2022/08/10 09:33:09;;;;;;;6.05;2.85;;;24.00;70.70;;;;;;5085944;28;20032;-62
2022/08/10 09:35:54;;;;;;;4.43;2.95;;;24.00;72.70;;;;;;5087513;28;20515;-64
2022/08/10 09:38:57;;;;;;;6.88;2.78;;;23.80;73.80;;;;;;5081235;28;20156;-63
2022/08/10 09:41:50;;;;;;;5.60;2.72;;;23.70;74.00;;;;;;5076804;28;20760;-63
2022/08/10 09:44:35;;;;;;;3.30;2.15;;;23.80;72.90;;;;;;5080091;28;20209;-63
2022/08/10 09:47:25;;;;;;;5.50;2.83;;;24.00;73.30;;;;;;5083508;28;20458;-66
2022/08/10 09:49:59;;;;;;;6.68;2.75;;;23.90;73.50;;;;;;5080965;28;20574;-61
2022/08/10 09:52:37;;;;;;;3.60;2.78;;;24.10;72.40;;;;;;5085679;28;20032;-62
2022/08/10 09:55:08;;;;;;;7.22;2.60;;;24.00;72.70;;;;;;5086487;28;20496;-61
2022/08/10 09:57:56;;;;;;;3.97;2.58;;;23.80;70.70;;;;;;5084848;28;20143;-66
2022/08/10 10:00:39;;;;;;;8.32;2.42;;;23.90;74.50;;;;;;5080568;28;20059;-65
2022/08/10 10:03:22;;;;;;;6.40;2.35;;;23.80;73.10;;;;;;5079210;28;20071;-64
2022/08/10 10:06:04;;;;;;;7.93;3.13;;;23.80;75.80;;;;;;5085877;28;20044;-62
2022/08/10 10:08:44;;;;;;;2.95;2.20;;;23.80;70.30;;;;;;5086588;28;20089;-63
2022/08/10 10:11:28;;;;;;;3.42;2.42;;;23.80;69.90;;;;;;5085852;28;20043;-66
2022/08/10 10:14:15;;;;;;;4.75;2.50;;;24.10;71.80;;;;;;5086043;28;20040;-61
2022/08/10 10:17:14;;;;;;;3.47;2.33;;;24.10;73.00;;;;;;5082964;28;20132;-59
2022/08/10 10:19:53;;;;;;;5.18;2.78;;;24.20;69.70;;;;;;5082412;28;20404;-60
2022/08/10 10:22:51;;;;;;;11.10;2.58;;;24.20;69.20;;;;;;5078589;28;20035;-62
2022/08/10 10:25:38;;;;;;;5.13;2.67;;;24.00;69.00;;;;;;5080017;28;20105;-64
2022/08/10 10:28:19;;;;;;;4.32;2.70;;;23.90;71.00;;;;;;5085765;28;20071;-62
2022/08/10 10:31:02;;;;;;;2.90;2.05;;;24.00;69.60;;;;;;5085614;28;20464;-63
2022/08/10 10:33:58;;;;;;;5.90;2.88;;;23.90;70.80;;;;;;5086824;28;20043;-63
2022/08/10 10:36:26;;;;;;;7.00;2.40;;;24.00;74.90;;;;;;5076760;28;20040;-63
2022/08/10 10:38:54;;;;;;;4.90;2.00;;;24.00;71.80;;;;;;5086276;28;20040;-63
2022/08/10 10:41:53;;;;;;;7.50;2.70;;;24.10;72.80;;;;;;5080182;28;20035;-63
2022/08/10 10:44:31;;;;;;;7.00;2.53;;;24.20;69.10;;;;;;5082232;28;20454;-63
2022/08/10 10:47:23;;;;;;;4.38;2.50;;;24.40;71.20;;;;;;5085528;28;20059;-63
2022/08/10 10:50:20;;;;;;;3.20;2.30;;;24.40;70.00;;;;;;5075589;28;20040;-63
2022/08/10 10:53:08;;;;;;;4.63;2.45;;;24.20;73.50;;;;;;5085686;28;20035;-63
2022/08/10 10:55:52;;;;;;;3.92;2.40;;;24.20;68.30;;;;;;5085250;28;20043;-62
2022/08/10 10:58:32;;;;;;;8.15;2.38;;;24.20;70.50;;;;;;5085380;28;20043;-64
2022/08/10 11:01:35;;;;;;;6.80;2.30;;;24.20;69.00;;;;;;5082727;28;20051;-62
2022/08/10 11:04:14;;;;;;;3.92;2.22;;;24.20;68.80;;;;;;5083802;28;20105;-63
2022/08/10 11:06:49;;;;;;;5.00;2.15;;;24.20;68.60;;;;;;5081622;28;20077;-62
2022/08/10 11:09:22;;;;;;;3.72;2.03;;;24.20;67.60;;;;;;5084498;28;20051;-62
2022/08/10 11:11:53;;;;;;;3.60;1.88;;;24.30;68.30;;;;;;5082915;28;20209;-62
2022/08/10 11:14:40;;;;;;;4.20;2.00;;;24.60;68.00;;;;;;5077551;28;20036;-63
2022/08/10 11:17:37;;;;;;;4.28;2.38;;;24.90;67.30;;;;;;5083025;28;20032;-62
2022/08/10 11:20:24;;;;;;;6.15;2.30;;;25.20;63.80;;;;;;5064743;28;20036;-63
2022/08/10 11:23:08;;;;;;;4.47;1.98;;;25.00;65.00;;;;;;5076199;28;20052;-63
2022/08/10 11:25:43;;;;;;;3.10;2.17;;;25.00;69.80;;;;;;5080492;28;20719;-63
2022/08/10 11:28:27;;;;;;;3.50;2.17;;;25.10;62.40;;;;;;5080706;28;20115;-62
2022/08/10 11:31:18;;;;;;;6.40;2.40;;;25.10;66.10;;;;;;5082449;28;20032;-63
2022/08/10 11:33:57;;;;;;;6.38;1.98;;;25.20;65.20;;;;;;5085516;28;20412;-63
2022/08/10 11:36:29;;;;;;;4.53;2.05;;;25.10;66.10;;;;;;5084457;28;20052;-63
2022/08/10 11:39:22;;;;;;;3.35;2.13;;;24.90;70.40;;;;;;5084223;28;20205;-63
2022/08/10 11:41:53;;;;;;;3.90;2.30;;;24.80;68.40;;;;;;5082932;28;20044;-63
2022/08/10 11:44:47;;;;;;;3.40;1.90;;;24.60;71.30;;;;;;5084696;28;20044;-63
2022/08/10 11:47:18;;;;;;;7.20;2.42;;;24.60;70.40;;;;;;5084245;28;20728;-62
2022/08/10 11:50:00;;;;;;;6.28;2.00;;;24.80;66.50;;;;;;5075478;28;20040;-63
2022/08/10 11:52:44;;;;;;;3.92;2.20;;;24.90;66.90;;;;;;5078323;28;20044;-63
2022/08/10 11:55:21;;;;;;;5.65;2.33;;;25.00;67.10;;;;;;5080304;28;20039;-64
2022/08/10 11:57:50;;;;;;;4.20;2.03;;;25.30;65.70;;;;;;5084350;28;20048;-63
2022/08/10 12:00:17;;;;;;;3.85;2.50;;;25.30;64.10;;;;;;5084380;28;20051;-63
2022/08/10 12:02:52;;;;;;;2.03;1.83;;;25.30;65.30;;;;;;5085087;28;20048;-64
2022/08/10 12:05:31;;;;;;;3.42;2.13;;;25.30;66.00;;;;;;5084040;28;20047;-65
2022/08/10 12:07:59;;;;;;;4.25;2.38;;;25.50;64.90;;;;;;5082786;28;20052;-63
2022/08/10 12:10:25;;;;;;;3.42;2.08;;;25.40;62.80;;;;;;5085850;28;20499;-63
2022/08/10 12:13:09;;;;;;;7.28;2.65;;;25.40;64.40;;;;;;5084701;28;20044;-62
2022/08/10 12:15:47;;;;;;;4.68;2.70;;;25.50;66.00;;;;;;5089468;28;20048;-63
2022/08/10 12:18:18;;;;;;;7.60;2.45;;;25.20;66.30;;;;;;5084774;28;20113;-64
2022/08/10 12:20:50;;;;;;;6.90;2.40;;;25.10;66.20;;;;;;5084835;28;20043;-62
2022/08/10 12:23:42;;;;;;;3.80;2.17;;;25.20;66.20;;;;;;5084556;28;20044;-62
2022/08/10 12:26:19;;;;;;;3.90;2.35;;;25.20;66.20;;;;;;5086035;28;20044;-62
2022/08/10 12:29:18;;;;;;;3.00;2.40;;;25.30;66.70;;;;;;5088721;28;20532;-63
2022/08/10 12:31:50;;;;;;;3.83;2.00;;;25.20;65.10;;;;;;5068379;28;20048;-63
2022/08/10 12:34:26;;;;;;;5.38;2.45;;;25.20;64.10;;;;;;5069575;28;20048;-63
2022/08/10 12:37:02;;;;;;;4.60;2.42;;;25.20;63.80;;;;;;5086071;28;20063;-62
2022/08/10 12:39:34;;;;;;;6.40;2.33;;;25.50;65.30;;;;;;5087835;28;20044;-63
2022/08/10 12:42:09;;;;;;;3.13;2.17;;;25.40;65.00;;;;;;5085439;28;20083;-63
2022/08/10 12:44:47;;;;;;;6.18;2.25;;;25.30;64.30;;;;;;5088037;28;20301;-63
2022/08/10 12:47:43;;;;;;;3.47;2.30;;;25.30;65.30;;;;;;5088033;28;20240;-63
2022/08/10 12:50:11;;;;;;;4.47;2.40;;;25.20;65.70;;;;;;5080633;28;20048;-62
2022/08/10 12:52:48;;;;;;;4.10;2.40;;;25.00;64.00;;;;;;5088242;28;20499;-62
2022/08/10 12:55:17;;;;;;;6.25;2.13;;;25.00;61.30;;;;;;5080760;28;20064;-62
2022/08/10 12:57:50;;;;;;;4.20;2.38;;;25.10;62.80;;;;;;5088289;28;20047;-63
2022/08/10 13:00:16;;;;;;;4.57;2.28;;;25.30;63.20;;;;;;5085645;28;20043;-63
2022/08/10 13:02:44;;;;;;;4.82;2.42;;;25.60;62.70;;;;;;5087540;28;20048;-63
2022/08/10 13:05:12;;;;;;;3.60;2.08;;;25.80;63.00;;;;;;5084566;28;20028;-62
2022/08/10 13:07:41;;;;;;;6.75;2.38;;;25.90;62.90;;;;;;5087354;28;20551;-63
2022/08/10 13:10:14;;;;;;;5.47;2.60;;;25.80;66.40;;;;;;5085643;28;20044;-63
2022/08/10 13:12:43;;;;;;;4.25;2.40;;;25.70;66.10;;;;;;5086601;28;20412;-63
2022/08/10 13:15:20;;;;;;;2.30;1.98;;;25.40;61.80;;;;;;5079420;28;20154;-64
2022/08/10 13:17:52;;;;;;;6.90;2.58;;;25.40;61.80;;;;;;5086923;28;20101;-63
2022/08/10 13:20:29;;;;;;;3.65;2.40;;;25.60;64.50;;;;;;5080587;28;20131;-63
2022/08/10 13:22:58;;;;;;;5.13;1.95;;;26.00;62.70;;;;;;5085774;28;20416;-63
2022/08/10 13:25:31;;;;;;;5.07;1.98;;;26.10;62.10;;;;;;5085692;28;20491;-63
2022/08/10 13:28:03;;;;;;;4.93;2.30;;;26.10;64.40;;;;;;5086416;28;20135;-63
2022/08/10 13:30:29;;;;;;;4.32;2.50;;;26.10;61.20;;;;;;5086888;28;20054;-63